Milford Square, PA (18935)

4:46 AM EST on November 27, 2014 (GMT -0500)
Milford Township | Change Station
CLOSE
Current Station
Personal Weather Station
Location: Quakertown, PA
Elevation: 544 ft
Nearby Weather Stations

Elev 544 ft 40.42 °N, 75.44 °W | Updated 9 minutes ago

Overcast
Overcast
32.7 °F
Feels Like 33 °F
N
0.0
Wind Variable Wind from WNW
Gusts 0.0 mph

Today
High -- | Low -- °F
--% Chance of Precip.
Yesterday
High -- | Low -- °F
Precip. -- in
7:01 AM 4:36 PM
Waxing Crescent, 28% visible
Pressure 29.96 in
Visibility 8.0 miles
Clouds Mostly Cloudy 3800 ft
Overcast 4500 ft
Windchill 33 °F
Dew Point 28 °F
Humidity 84%
Rainfall 0.00 in
Snow Depth Not available.
UV 0 out of 12
Pollen .10 out of 12
Air Quality Not available.
Flu Activity Not available.
METAR KUKT 270935Z AUTO 28003KT 8SM BKN038 OVC045 00/M01 A2996 RMK AO1

More Conditions Fewer Conditions

Pressure 29.96 in
Visibility 8.0 miles
Clouds Mostly Cloudy 3800 ft
Overcast 4500 ft
Windchill 33 °F
Dew Point 28 °F
Humidity 84%
Rainfall 0.00 in
Snow Depth Not available.
UV 0 out of 12
Pollen .10 out of 12
Air Quality Not available.
Flu Activity Not available.
METAR KUKT 270935Z AUTO 28003KT 8SM BKN038 OVC045 00/M01 A2996 RMK AO1

More Conditions Fewer Conditions

10-Day Weather Forecast

Almanac

Astronomy

Nov. 27, 2014 Rise Set
Actual Time
Civil Twilight
Nautical Twilight
Astronomical Twilight
Moon
Length of Visible Light
Length of Day
Tomorrow will be .
, % of the Moon is Illuminated

Today's Extremes

State Highs State Lows

Community

WunderPhotos

Upload Photos

1,773,965 photos uploaded!

WunderBlogs® & News

Nearby

Air Quality

  Air Quality AQ Index Pollutant
Not available.

Snow Depth

Station Depth Elevation

Earthquake Activity

City Distance Mag. Time & Date
Minimum magnitude displayed is 2.5.

Coastal Water Temperatures

Place Temperature

Nearby Weather Stations